Time;durP1;ratioP1;P1;durP2;ratioP2;P2;SDS_P1;SDS_P2;PMS_P1;PMS_P2;Temp;Humidity;BMP_temperature;BMP_pressure;BME280_temperature;BME280_humidity;BME280_pressure;Samples;Min_cycle;Max_cycle;Signal;HPM_P1;HPM_P2
2022/04/07 00:01:16;;;;;;;;;;;;;;;9.54;58.51;98985.88;4987187;28;20549;-80
2022/04/07 00:03:41;;;;;;;;;;;;;;;9.27;58.56;98985.59;4991877;28;19925;-80
2022/04/07 00:06:09;;;;;;;;;;;;;;;9.35;58.83;98981.03;5007696;28;19937;-79
2022/04/07 00:08:35;;;;;;;;;;;;;;;9.41;58.71;98980.88;5007440;28;19983;-79
2022/04/07 00:11:01;;;;;;;;;;;;;;;9.47;58.35;98969.38;5024043;28;19921;-79
2022/04/07 00:13:27;;;;;;;;;;;;;;;9.50;57.41;98962.25;4996403;28;20391;-79
2022/04/07 00:15:53;;;;;;;;;;;;;;;9.50;57.35;98966.66;5008491;28;19944;-79
2022/04/07 00:18:18;;;;;;;;;;;;;;;9.42;57.39;98963.31;5008484;28;19972;-79
2022/04/07 00:20:44;;;;;;;;;;;;;;;9.40;58.46;98963.34;5008235;28;20473;-79
2022/04/07 00:23:09;;;;;;;;;;;;;;;9.40;57.81;98965.97;4997368;28;19933;-80
2022/04/07 00:25:34;;;;;;;;;;;;;;;9.32;57.99;98968.78;5007507;28;20012;-80
2022/04/07 00:27:59;;;;;;;;;;;;;;;9.14;58.24;98970.06;5007724;28;19922;-79
2022/04/07 00:30:25;;;;;;;;;;;;;;;9.39;57.69;98982.69;5008753;28;19932;-79
2022/04/07 00:32:50;;;;;;;;;;;;;;;9.29;58.36;98979.38;5002291;28;19944;-80
2022/04/07 00:35:16;;;;;;;;;;;;;;;9.48;57.55;98982.50;4989949;28;20367;-79
2022/04/07 00:37:42;;;;;;;;;;;;;;;9.35;58.16;98980.16;4989374;28;20299;-80
2022/04/07 00:40:08;;;;;;;;;;;;;;;9.31;57.57;98972.34;4988295;28;19928;-80
2022/04/07 00:42:33;;;;;;;;;;;;;;;9.33;57.54;98972.31;5000754;28;19930;-80
2022/04/07 00:44:59;;;;;;;;;;;;;;;9.21;57.97;98955.00;4988634;28;19925;-79
2022/04/07 00:47:27;;;;;;;;;;;;;;;8.96;58.98;98952.88;4988155;28;19928;-79
2022/04/07 00:49:53;;;;;;;;;;;;;;;9.10;58.45;98954.38;4988379;28;20323;-79
2022/04/07 00:52:19;;;;;;;;;;;;;;;8.59;59.31;98948.34;4988249;28;19922;-79
2022/04/07 00:54:45;;;;;;;;;;;;;;;8.54;58.64;98946.69;4988393;28;19921;-78
2022/04/07 00:57:10;;;;;;;;;;;;;;;8.16;58.79;98941.19;4998842;28;19933;-79
2022/04/07 00:59:36;;;;;;;;;;;;;;;8.14;58.56;98945.63;5019164;28;19979;-78
2022/04/07 01:02:01;;;;;;;;;;;;;;;7.93;59.12;98941.56;4988334;28;19961;-79
2022/04/07 01:04:26;;;;;;;;;;;;;;;7.93;59.54;98951.22;4988605;28;20427;-79
2022/04/07 01:06:52;;;;;;;;;;;;;;;8.03;59.29;98937.91;4988187;28;19918;-79
2022/04/07 01:09:18;;;;;;;;;;;;;;;7.89;59.91;98938.13;4999030;28;19933;-79
2022/04/07 01:11:44;;;;;;;;;;;;;;;8.04;59.61;98946.66;4987979;28;20414;-78
2022/04/07 01:14:10;;;;;;;;;;;;;;;8.17;59.69;98942.94;4987577;28;20020;-79
2022/04/07 01:16:36;;;;;;;;;;;;;;;8.29;59.19;98941.84;4988109;28;19922;-79
2022/04/07 01:19:02;;;;;;;;;;;;;;;8.27;59.58;98943.63;4992108;28;19975;-79
2022/04/07 01:21:30;;;;;;;;;;;;;;;8.24;59.74;98947.16;5007325;28;20448;-79
2022/04/07 01:24:05;;;;;;;;;;;;;;;8.40;59.42;98936.38;5007062;28;19925;-79
2022/04/07 01:26:32;;;;;;;;;;;;;;;8.18;59.93;98933.28;4999224;28;19921;-79
2022/04/07 01:28:58;;;;;;;;;;;;;;;7.98;60.70;98934.47;4992064;28;19925;-79
2022/04/07 01:31:23;;;;;;;;;;;;;;;7.80;61.20;98942.66;5002887;28;20067;-79
2022/04/07 01:33:49;;;;;;;;;;;;;;;7.92;61.33;98934.56;4987972;28;20543;-79
2022/04/07 01:36:16;;;;;;;;;;;;;;;8.02;61.07;98916.94;4986935;28;19926;-79
2022/04/07 01:38:41;;;;;;;;;;;;;;;8.14;60.49;98929.84;4991659;28;19925;-79
2022/04/07 01:41:07;;;;;;;;;;;;;;;8.06;61.07;98929.09;5010174;28;19994;-79
2022/04/07 01:43:33;;;;;;;;;;;;;;;8.04;61.00;98923.00;5004744;28;20805;-79
2022/04/07 01:45:59;;;;;;;;;;;;;;;8.02;61.22;98924.81;4992003;28;20012;-79
2022/04/07 01:48:24;;;;;;;;;;;;;;;8.15;61.03;98909.69;4991617;28;20028;-79
2022/04/07 01:50:50;;;;;;;;;;;;;;;8.12;60.21;98892.22;5011345;28;19965;-79
2022/04/07 01:53:16;;;;;;;;;;;;;;;8.00;59.92;98880.19;4998888;28;19933;-80
2022/04/07 01:55:41;;;;;;;;;;;;;;;7.79;60.16;98886.66;5022179;28;19926;-79
2022/04/07 01:58:07;;;;;;;;;;;;;;;7.59;61.20;98883.50;5023116;28;19953;-79
2022/04/07 02:00:32;;;;;;;;;;;;;;;7.60;61.86;98879.97;4990909;28;19975;-79
2022/04/07 02:02:58;;;;;;;;;;;;;;;7.67;61.06;98884.22;4999794;28;19925;-79
2022/04/07 02:05:23;;;;;;;;;;;;;;;7.81;61.21;98868.25;4993072;28;19929;-79
2022/04/07 02:07:48;;;;;;;;;;;;;;;7.62;61.40;98850.19;4990873;28;19996;-79
2022/04/07 02:10:15;;;;;;;;;;;;;;;7.35;62.49;98864.59;4990331;28;20016;-79
2022/04/07 02:12:41;;;;;;;;;;;;;;;7.53;62.69;98874.81;5000137;28;19983;-79
2022/04/07 02:15:06;;;;;;;;;;;;;;;7.76;61.97;98875.34;5010982;28;19933;-79
2022/04/07 02:17:32;;;;;;;;;;;;;;;7.81;61.99;98870.88;5010935;28;20398;-79
2022/04/07 02:19:58;;;;;;;;;;;;;;;7.78;61.98;98865.69;5010548;28;20296;-80
2022/04/07 02:22:24;;;;;;;;;;;;;;;7.62;62.29;98833.56;5008641;28;19928;-79
2022/04/07 02:24:50;;;;;;;;;;;;;;;7.46;62.69;98815.47;5010647;28;19933;-79
2022/04/07 02:27:16;;;;;;;;;;;;;;;7.56;62.09;98810.91;5000497;28;19921;-78
2022/04/07 02:29:44;;;;;;;;;;;;;;;7.54;62.18;98815.34;4992662;28;19926;-79
2022/04/07 02:32:13;;;;;;;;;;;;;;;7.70;62.06;98821.19;4994268;28;19917;-79
2022/04/07 02:34:39;;;;;;;;;;;;;;;7.82;62.21;98817.47;5001848;28;19932;-79
2022/04/07 02:37:04;;;;;;;;;;;;;;;8.05;61.43;98811.81;5010441;28;20288;-78
2022/04/07 02:39:30;;;;;;;;;;;;;;;7.94;60.72;98816.38;5009668;28;19924;-78
2022/04/07 02:41:55;;;;;;;;;;;;;;;8.12;60.50;98820.44;4991037;28;19917;-79
2022/04/07 02:44:21;;;;;;;;;;;;;;;8.32;60.46;98813.00;4990988;28;19918;-79
2022/04/07 02:46:46;;;;;;;;;;;;;;;8.38;60.89;98807.63;4990708;28;19932;-79
2022/04/07 02:49:11;;;;;;;;;;;;;;;8.44;60.27;98804.06;4990657;28;19964;-79
2022/04/07 02:51:37;;;;;;;;;;;;;;;8.50;59.63;98803.94;5006262;28;20016;-79
2022/04/07 02:54:02;;;;;;;;;;;;;;;8.62;59.94;98800.19;5009985;28;19922;-78
2022/04/07 02:56:28;;;;;;;;;;;;;;;8.79;59.62;98786.69;5010173;28;20303;-79
2022/04/07 02:58:56;;;;;;;;;;;;;;;8.80;58.76;98795.44;4995424;28;19934;-78
2022/04/07 03:01:22;;;;;;;;;;;;;;;8.76;58.30;98800.75;4986416;28;19944;-79
2022/04/07 03:03:48;;;;;;;;;;;;;;;8.79;59.61;98791.94;4989463;28;19922;-79
2022/04/07 03:06:14;;;;;;;;;;;;;;;8.89;58.79;98793.44;4990214;28;19932;-81
2022/04/07 03:08:39;;;;;;;;;;;;;;;8.73;58.31;98790.31;5000322;28;19922;-79
2022/04/07 03:11:07;;;;;;;;;;;;;;;8.73;59.29;98789.44;4994771;28;20308;-79
2022/04/07 03:13:32;;;;;;;;;;;;;;;8.63;59.69;98796.66;4978636;28;20431;-79
2022/04/07 03:15:58;;;;;;;;;;;;;;;8.62;61.30;98794.03;4970286;28;19950;-79
2022/04/07 03:18:23;;;;;;;;;;;;;;;8.81;60.13;98770.88;4988381;28;20354;-80
2022/04/07 03:20:49;;;;;;;;;;;;;;;8.72;59.86;98764.91;5009394;28;20301;-80
2022/04/07 03:23:14;;;;;;;;;;;;;;;8.71;59.68;98778.06;4994359;28;19929;-79
2022/04/07 03:25:40;;;;;;;;;;;;;;;8.74;60.40;98772.75;4989405;28;19961;-79
2022/04/07 03:28:06;;;;;;;;;;;;;;;8.74;60.52;98752.59;4990457;28;19941;-80
2022/04/07 03:30:31;;;;;;;;;;;;;;;8.63;61.00;98756.34;5001837;28;19925;-79
2022/04/07 03:32:57;;;;;;;;;;;;;;;8.56;60.74;98766.16;4995258;28;19926;-79
2022/04/07 03:35:22;;;;;;;;;;;;;;;8.57;61.44;98775.75;5006521;28;19969;-79
2022/04/07 03:37:47;;;;;;;;;;;;;;;8.63;61.33;98770.34;4993165;28;20016;-80
2022/04/07 03:40:13;;;;;;;;;;;;;;;8.54;61.80;98776.69;4970762;28;19937;-78
2022/04/07 03:42:38;;;;;;;;;;;;;;;8.54;62.53;98784.59;4980799;28;19922;-79
2022/04/07 03:45:04;;;;;;;;;;;;;;;8.73;62.33;98784.19;5003714;28;19975;-79
2022/04/07 03:47:30;;;;;;;;;;;;;;;8.69;62.20;98786.00;5008906;28;19924;-79
2022/04/07 03:49:55;;;;;;;;;;;;;;;8.81;62.22;98768.25;4998676;28;19922;-79
2022/04/07 03:52:20;;;;;;;;;;;;;;;8.91;60.91;98752.22;4999507;28;19929;-79
2022/04/07 03:54:45;;;;;;;;;;;;;;;8.66;61.46;98745.78;5009142;28;19975;-79
2022/04/07 03:57:11;;;;;;;;;;;;;;;8.72;61.83;98751.75;4996772;28;19929;-79
2022/04/07 03:59:38;;;;;;;;;;;;;;;8.72;63.02;98743.84;4991907;28;19976;-80
2022/04/07 04:02:05;;;;;;;;;;;;;;;8.82;63.02;98733.13;4999608;28;19971;-80
2022/04/07 04:04:30;;;;;;;;;;;;;;;8.84;62.29;98726.09;5008304;28;20435;-79
2022/04/07 04:06:55;;;;;;;;;;;;;;;8.82;61.67;98718.25;5007235;28;19983;-79
2022/04/07 04:09:21;;;;;;;;;;;;;;;8.77;62.27;98714.84;5014670;28;20498;-79
2022/04/07 04:11:46;;;;;;;;;;;;;;;8.75;63.38;98720.13;4997849;28;19918;-78
2022/04/07 04:14:11;;;;;;;;;;;;;;;8.96;63.15;98729.28;5007485;28;20327;-79
2022/04/07 04:16:37;;;;;;;;;;;;;;;9.00;64.19;98719.53;5008691;28;19917;-79
2022/04/07 04:19:02;;;;;;;;;;;;;;;9.14;63.45;98712.19;5000774;28;20590;-78
2022/04/07 04:21:27;;;;;;;;;;;;;;;9.11;63.90;98725.44;4994931;28;19922;-78
2022/04/07 04:23:53;;;;;;;;;;;;;;;9.12;64.84;98719.25;4988078;28;19925;-78
2022/04/07 04:26:18;;;;;;;;;;;;;;;9.29;64.60;98697.78;4987559;28;19975;-79
2022/04/07 04:28:43;;;;;;;;;;;;;;;8.92;64.65;98695.19;4999805;28;19929;-79
2022/04/07 04:31:09;;;;;;;;;;;;;;;8.91;64.83;98696.97;5000948;28;19956;-79
2022/04/07 04:33:34;;;;;;;;;;;;;;;8.95;64.47;98706.50;5007061;28;19921;-79
2022/04/07 04:35:59;;;;;;;;;;;;;;;9.20;63.65;98715.56;4993604;28;19980;-79
2022/04/07 04:38:25;;;;;;;;;;;;;;;9.20;64.49;98715.56;4995573;28;19925;-79
2022/04/07 04:40:50;;;;;;;;;;;;;;;9.21;65.08;98707.63;4980462;28;19929;-79
2022/04/07 04:43:15;;;;;;;;;;;;;;;9.10;64.64;98697.38;4979229;28;20045;-79
2022/04/07 04:45:41;;;;;;;;;;;;;;;9.02;65.58;98706.34;4987868;28;19928;-79
2022/04/07 04:48:06;;;;;;;;;;;;;;;9.08;65.17;98704.47;4988235;28;20032;-79
2022/04/07 04:50:31;;;;;;;;;;;;;;;9.04;64.71;98702.78;4987316;28;19945;-78
2022/04/07 04:52:57;;;;;;;;;;;;;;;9.13;64.74;98705.19;4987792;28;19922;-79
2022/04/07 04:55:22;;;;;;;;;;;;;;;9.33;63.16;98701.22;4987217;28;19996;-79
2022/04/07 04:57:47;;;;;;;;;;;;;;;9.43;63.49;98709.72;4985084;28;20008;-79
2022/04/07 05:00:13;;;;;;;;;;;;;;;9.55;64.21;98724.34;4997273;28;19930;-78
2022/04/07 05:02:40;;;;;;;;;;;;;;;9.64;65.69;98724.94;5019206;28;19922;-78
2022/04/07 05:05:06;;;;;;;;;;;;;;;9.84;64.96;98713.03;4988288;28;19921;-78
2022/04/07 05:07:32;;;;;;;;;;;;;;;10.06;64.29;98704.53;4998243;28;19956;-78
2022/04/07 05:09:57;;;;;;;;;;;;;;;10.07;63.32;98699.19;4981768;28;20075;-78
2022/04/07 05:12:22;;;;;;;;;;;;;;;10.20;64.52;98708.47;4983258;28;19922;-79
2022/04/07 05:14:48;;;;;;;;;;;;;;;10.36;63.21;98697.50;4994812;28;19983;-78
2022/04/07 05:17:13;;;;;;;;;;;;;;;10.31;63.26;98696.75;4987339;28;19936;-79
2022/04/07 05:19:38;;;;;;;;;;;;;;;10.23;63.33;98709.31;4986764;28;19928;-78
2022/04/07 05:22:04;;;;;;;;;;;;;;;10.42;63.20;98707.00;4982532;28;20020;-78
2022/04/07 05:24:29;;;;;;;;;;;;;;;10.69;63.35;98692.97;4976220;28;20378;-78
2022/04/07 05:26:55;;;;;;;;;;;;;;;10.79;62.07;98695.31;4906133;28;2040002;-79
2022/04/07 05:29:20;;;;;;;;;;;;;;;10.93;60.04;98693.94;4978513;28;19961;-78
2022/04/07 05:31:45;;;;;;;;;;;;;;;10.86;60.23;98675.72;4977124;28;19929;-78
2022/04/07 05:34:11;;;;;;;;;;;;;;;11.01;60.71;98674.38;4977618;28;19922;-78
2022/04/07 05:36:36;;;;;;;;;;;;;;;11.13;61.05;98666.03;4986714;28;19937;-79
2022/04/07 05:39:01;;;;;;;;;;;;;;;11.23;59.07;98667.47;4975219;28;19918;-78
2022/04/07 05:41:27;;;;;;;;;;;;;;;11.20;57.93;98666.69;4989871;28;19922;-78
2022/04/07 05:43:52;;;;;;;;;;;;;;;10.88;59.64;98653.66;5000617;28;19929;-78
2022/04/07 05:46:17;;;;;;;;;;;;;;;11.19;59.73;98650.00;4988091;28;19929;-78
2022/04/07 05:48:43;;;;;;;;;;;;;;;11.35;59.48;98647.69;4986696;28;20399;-78
2022/04/07 05:51:08;;;;;;;;;;;;;;;11.37;59.65;98650.28;5004387;28;19922;-79
2022/04/07 05:53:33;;;;;;;;;;;;;;;11.25;59.76;98644.50;5002465;28;19925;-79
2022/04/07 05:55:59;;;;;;;;;;;;;;;11.22;59.91;98623.50;4983693;28;19918;-78
2022/04/07 05:58:24;;;;;;;;;;;;;;;11.45;56.13;98619.19;4987753;28;19929;-78
2022/04/07 06:00:50;;;;;;;;;;;;;;;11.29;55.73;98605.66;4991247;28;20410;-78
2022/04/07 06:03:15;;;;;;;;;;;;;;;11.35;56.55;98609.88;5006519;28;19921;-78
2022/04/07 06:05:41;;;;;;;;;;;;;;;11.28;55.69;98618.00;4987085;28;19930;-78
2022/04/07 06:08:06;;;;;;;;;;;;;;;11.21;57.29;98618.28;5000082;28;20346;-79
2022/04/07 06:10:31;;;;;;;;;;;;;;;11.33;57.15;98617.00;5002446;28;19921;-80
2022/04/07 06:12:57;;;;;;;;;;;;;;;11.65;55.38;98621.97;4987108;28;19929;-79
2022/04/07 06:15:23;;;;;;;;;;;;;;;11.39;56.86;98627.34;4987440;28;19921;-79
2022/04/07 06:17:50;;;;;;;;;;;;;;;11.42;56.62;98627.22;4979328;28;19922;-79
2022/04/07 06:20:16;;;;;;;;;;;;;;;11.55;54.52;98622.34;4986712;28;20024;-79
2022/04/07 06:22:42;;;;;;;;;;;;;;;11.57;54.30;98621.41;4991826;28;20454;-82
2022/04/07 06:25:08;;;;;;;;;;;;;;;11.80;54.81;98614.38;5007769;28;19924;-79
2022/04/07 06:27:44;;;;;;;;;;;;;;;11.65;53.15;98616.69;4982145;28;19926;-80
2022/04/07 06:30:10;;;;;;;;;;;;;;;11.65;54.57;98614.03;4986226;28;20352;-80
2022/04/07 06:32:36;;;;;;;;;;;;;;;11.63;55.26;98610.59;4971232;28;19973;-79
2022/04/07 06:35:01;;;;;;;;;;;;;;;12.20;54.75;98597.03;4986218;28;19930;-80
2022/04/07 06:37:27;;;;;;;;;;;;;;;12.36;53.36;98592.88;4990098;28;19953;-79
2022/04/07 06:40:01;;;;;;;;;;;;;;;12.17;53.61;98592.75;4980691;28;19921;-80
2022/04/07 06:42:27;;;;;;;;;;;;;;;12.26;52.61;98588.03;4971168;28;19961;-80
2022/04/07 06:44:55;;;;;;;;;;;;;;;12.39;51.25;98583.09;4971347;28;19965;-79
2022/04/07 06:47:20;;;;;;;;;;;;;;;12.53;51.97;98573.69;4971718;28;19922;-79
2022/04/07 06:49:49;;;;;;;;;;;;;;;12.54;51.30;98564.84;4988759;28;19952;-80
2022/04/07 06:52:15;;;;;;;;;;;;;;;12.58;50.60;98562.06;4990693;28;19921;-79
2022/04/07 06:54:40;;;;;;;;;;;;;;;12.70;51.99;98557.13;4990623;28;19917;-79
2022/04/07 06:57:05;;;;;;;;;;;;;;;12.89;51.99;98549.25;4990613;28;19922;-79
2022/04/07 06:59:31;;;;;;;;;;;;;;;13.15;50.12;98549.94;4990146;28;19976;-79
2022/04/07 07:01:56;;;;;;;;;;;;;;;13.35;50.73;98551.72;4990150;28;20645;-79
2022/04/07 07:04:21;;;;;;;;;;;;;;;13.28;48.82;98541.44;4989825;28;19922;-80
2022/04/07 07:06:46;;;;;;;;;;;;;;;13.35;48.82;98535.00;4989777;28;19992;-79
2022/04/07 07:09:12;;;;;;;;;;;;;;;13.33;49.45;98528.84;4989852;28;20359;-79
2022/04/07 07:11:37;;;;;;;;;;;;;;;13.69;49.84;98529.00;4990324;28;20385;-80
2022/04/07 07:14:02;;;;;;;;;;;;;;;14.14;47.72;98533.06;4990350;28;19945;-79
2022/04/07 07:16:28;;;;;;;;;;;;;;;14.15;48.40;98528.63;4989835;28;20424;-81
2022/04/07 07:18:53;;;;;;;;;;;;;;;14.28;45.28;98524.44;4989501;28;19988;-79
2022/04/07 07:21:18;;;;;;;;;;;;;;;14.61;48.29;98515.78;4990316;28;19929;-80
2022/04/07 07:23:44;;;;;;;;;;;;;;;15.07;46.68;98520.53;4989014;28;19922;-81
2022/04/07 07:26:09;;;;;;;;;;;;;;;15.67;43.99;98525.31;4989562;28;20389;-81
2022/04/07 07:28:34;;;;;;;;;;;;;;;15.37;44.73;98517.22;4989548;28;20323;-81
2022/04/07 07:30:59;;;;;;;;;;;;;;;15.25;43.90;98510.75;4989725;28;19928;-80
2022/04/07 07:33:25;;;;;;;;;;;;;;;14.80;45.79;98509.56;4989788;28;19988;-80
2022/04/07 07:35:50;;;;;;;;;;;;;;;14.88;46.19;98498.53;4989419;28;19980;-81
2022/04/07 07:38:16;;;;;;;;;;;;;;;14.37;44.59;98483.34;4988636;28;19928;-81
2022/04/07 07:40:41;;;;;;;;;;;;;;;14.26;45.61;98483.88;4988645;28;20442;-81
2022/04/07 07:43:06;;;;;;;;;;;;;;;14.23;46.29;98469.91;5005173;28;19929;-81
2022/04/07 07:45:32;;;;;;;;;;;;;;;14.21;47.85;98475.28;4989086;28;19928;-81
2022/04/07 07:47:57;;;;;;;;;;;;;;;14.41;47.91;98468.13;4989413;28;19928;-81
2022/04/07 07:50:23;;;;;;;;;;;;;;;14.61;46.32;98467.16;4989047;28;19926;-81
2022/04/07 07:52:49;;;;;;;;;;;;;;;14.96;46.73;98467.13;4989061;28;19925;-80
2022/04/07 07:55:14;;;;;;;;;;;;;;;14.45;45.34;98467.03;4988767;28;20459;-81
2022/04/07 07:57:40;;;;;;;;;;;;;;;14.59;45.44;98471.66;4989345;28;19926;-81
2022/04/07 08:00:07;;;;;;;;;;;;;;;14.26;47.64;98480.38;4988726;28;19961;-81
2022/04/07 08:02:34;;;;;;;;;;;;;;;14.13;46.38;98478.31;4989024;28;20009;-81
2022/04/07 08:04:59;;;;;;;;;;;;;;;14.28;45.78;98484.66;4989030;28;19921;-81
2022/04/07 08:07:25;;;;;;;;;;;;;;;14.70;46.11;98471.97;4989524;28;19929;-81
2022/04/07 08:09:50;;;;;;;;;;;;;;;14.74;44.60;98468.25;4989215;28;19929;-81
2022/04/07 08:12:16;;;;;;;;;;;;;;;14.43;44.76;98461.81;4989255;28;20432;-81
2022/04/07 08:14:41;;;;;;;;;;;;;;;14.23;45.25;98446.03;4988836;28;20498;-81
2022/04/07 08:17:06;;;;;;;;;;;;;;;14.51;45.04;98441.03;4989417;28;19922;-81
2022/04/07 08:19:32;;;;;;;;;;;;;;;14.98;45.76;98439.56;4988697;28;20069;-81
2022/04/07 08:21:57;;;;;;;;;;;;;;;15.37;44.64;98435.69;4989423;28;19921;-81
2022/04/07 08:24:22;;;;;;;;;;;;;;;15.72;44.31;98435.56;4989095;28;19922;-81
2022/04/07 08:26:48;;;;;;;;;;;;;;;15.78;43.72;98428.19;4987816;28;19926;-82
2022/04/07 08:29:13;;;;;;;;;;;;;;;15.06;43.42;98435.63;4988838;28;20436;-81
2022/04/07 08:31:38;;;;;;;;;;;;;;;15.27;45.49;98436.28;4987679;28;20454;-81
2022/04/07 08:34:04;;;;;;;;;;;;;;;15.07;44.90;98440.00;4988793;28;19921;-82
2022/04/07 08:36:29;;;;;;;;;;;;;;;14.79;45.31;98436.16;4988550;28;19950;-81
2022/04/07 08:38:54;;;;;;;;;;;;;;;14.91;44.93;98429.34;4988783;28;19918;-81
2022/04/07 08:41:21;;;;;;;;;;;;;;;15.21;46.27;98414.44;4987767;28;20478;-82
2022/04/07 08:43:46;;;;;;;;;;;;;;;15.11;45.23;98418.50;4988554;28;19925;-81
2022/04/07 08:46:13;;;;;;;;;;;;;;;15.16;46.55;98415.59;4988467;28;20351;-81
2022/04/07 08:48:45;;;;;;;;;;;;;;;15.72;43.60;98405.44;4988376;28;19918;-81
2022/04/07 08:51:11;;;;;;;;;;;;;;;15.62;45.55;98398.94;4988394;28;19921;-82
2022/04/07 08:53:37;;;;;;;;;;;;;;;15.13;46.61;98387.41;4987986;28;19933;-80
2022/04/07 08:56:03;;;;;;;;;;;;;;;15.72;44.22;98376.19;4987833;28;19928;-82
2022/04/07 08:58:28;;;;;;;;;;;;;;;16.14;44.76;98374.66;4988339;28;20008;-82
2022/04/07 09:00:54;;;;;;;;;;;;;;;15.88;44.55;98377.06;4988624;28;19917;-83
2022/04/07 09:03:19;;;;;;;;;;;;;;;16.24;43.62;98354.56;4988199;28;19937;-83
2022/04/07 09:05:55;;;;;;;;;;;;;;;16.34;41.36;98332.72;4988509;28;19976;-82
2022/04/07 09:08:20;;;;;;;;;;;;;;;16.32;44.02;98318.69;4988363;28;19953;-83
2022/04/07 09:10:55;;;;;;;;;;;;;;;16.68;41.58;98306.72;4983339;28;19965;-83
2022/04/07 09:13:20;;;;;;;;;;;;;;;15.98;44.25;98296.75;4992292;28;20017;-82
2022/04/07 09:15:46;;;;;;;;;;;;;;;15.91;42.68;98299.78;4978625;28;20392;-81
2022/04/07 09:18:11;;;;;;;;;;;;;;;15.91;42.68;98294.47;4983541;28;19922;-84
2022/04/07 09:20:41;;;;;;;;;;;;;;;16.17;42.54;98301.81;4977123;28;19968;-81
2022/04/07 09:23:10;;;;;;;;;;;;;;;16.03;42.79;98292.00;4978374;28;20012;-82
2022/04/07 09:25:40;;;;;;;;;;;;;;;16.08;42.06;98276.63;4978366;28;19926;-81
2022/04/07 09:28:08;;;;;;;;;;;;;;;16.00;42.73;98285.06;4979048;28;19922;-83
2022/04/07 09:30:41;;;;;;;;;;;;;;;15.98;43.09;98262.19;4978394;28;19926;-81
2022/04/07 09:33:19;;;;;;;;;;;;;;;15.82;43.04;98249.81;4994248;28;19929;-82
2022/04/07 09:36:00;;;;;;;;;;;;;;;15.55;42.96;98247.81;4993830;28;19921;-82
2022/04/07 09:38:32;;;;;;;;;;;;;;;15.30;43.19;98255.47;4978386;28;20396;-82
2022/04/07 09:41:08;;;;;;;;;;;;;;;15.38;44.21;98258.53;4997919;28;19980;-82
2022/04/07 09:43:43;;;;;;;;;;;;;;;15.55;44.12;98246.91;4987883;28;19969;-81
2022/04/07 09:46:13;;;;;;;;;;;;;;;15.26;45.14;98257.44;4986476;28;19944;-82
2022/04/07 09:48:38;;;;;;;;;;;;;;;15.41;44.82;98255.69;4988077;28;19925;-82
2022/04/07 09:51:05;;;;;;;;;;;;;;;15.06;44.88;98265.66;4988065;28;19929;-81
2022/04/07 09:53:34;;;;;;;;;;;;;;;15.19;44.55;98266.69;4987958;28;19984;-81
2022/04/07 09:56:00;;;;;;;;;;;;;;;15.17;46.88;98271.25;4987023;28;19922;-81
2022/04/07 09:58:27;;;;;;;;;;;;;;;15.08;46.39;98293.00;4987616;28;19922;-83
2022/04/07 10:00:53;;;;;;;;;;;;;;;15.24;46.84;98287.69;4989028;28;19922;-79
2022/04/07 10:03:19;;;;;;;;;;;;;;;15.04;47.15;98263.09;4990769;28;19940;-81
2022/04/07 10:05:45;;;;;;;;;;;;;;;15.02;46.15;98262.34;4991559;28;19918;-79
2022/04/07 10:08:11;;;;;;;;;;;;;;;14.97;46.36;98254.63;4990572;28;19918;-81
2022/04/07 10:10:37;;;;;;;;;;;;;;;15.13;47.73;98240.50;5022943;28;19984;-81
2022/04/07 10:13:03;;;;;;;;;;;;;;;15.15;48.45;98239.47;4990534;28;19919;-82
2022/04/07 10:15:29;;;;;;;;;;;;;;;15.19;45.96;98227.72;5014737;28;20387;-81
2022/04/07 10:17:56;;;;;;;;;;;;;;;15.22;43.70;98226.69;4990149;28;19968;-83
2022/04/07 10:20:26;;;;;;;;;;;;;;;15.28;46.84;98223.69;5006645;28;19925;-81
2022/04/07 10:22:54;;;;;;;;;;;;;;;15.42;46.21;98222.03;4989768;28;19922;-81
2022/04/07 10:25:22;;;;;;;;;;;;;;;15.67;45.81;98210.81;4989071;28;20893;-80
2022/04/07 10:27:50;;;;;;;;;;;;;;;15.86;45.98;98195.47;4989455;28;19933;-80
2022/04/07 10:30:16;;;;;;;;;;;;;;;16.06;44.40;98172.97;4990999;28;19922;-81
2022/04/07 10:32:42;;;;;;;;;;;;;;;15.82;42.76;98155.88;4989974;28;19926;-81
2022/04/07 10:35:08;;;;;;;;;;;;;;;15.69;43.64;98153.97;4989654;28;19969;-82
2022/04/07 10:37:44;;;;;;;;;;;;;;;16.00;44.16;98145.91;4990392;28;19922;-82
2022/04/07 10:40:29;;;;;;;;;;;;;;;16.08;44.98;98155.16;4990297;28;19918;-81
2022/04/07 10:43:09;;;;;;;;;;;;;;;16.52;45.00;98171.06;4989937;28;20407;-80
2022/04/07 10:45:35;;;;;;;;;;;;;;;16.75;43.45;98173.13;4990560;28;19965;-81
2022/04/07 10:48:19;;;;;;;;;;;;;;;16.69;43.38;98164.69;4989577;28;19957;-81
2022/04/07 10:50:49;;;;;;;;;;;;;;;16.64;42.35;98171.13;4987043;28;19976;-81
2022/04/07 10:53:28;;;;;;;;;;;;;;;16.77;43.23;98183.66;4982185;28;20468;-81
2022/04/07 10:56:07;;;;;;;;;;;;;;;16.85;44.26;98193.81;4978829;28;19989;-81
2022/04/07 10:58:38;;;;;;;;;;;;;;;16.54;41.73;98201.94;4988587;28;19933;-82
2022/04/07 11:01:04;;;;;;;;;;;;;;;16.27;44.73;98201.88;4971245;28;20528;-81
2022/04/07 11:03:29;;;;;;;;;;;;;;;16.21;44.24;98197.78;4978778;28;20013;-81
2022/04/07 11:05:58;;;;;;;;;;;;;;;16.38;46.38;98194.09;4982280;28;19954;-81
2022/04/07 11:08:23;;;;;;;;;;;;;;;16.67;44.01;98178.09;4978849;28;20027;-81
2022/04/07 11:10:50;;;;;;;;;;;;;;;16.99;41.44;98176.03;4980589;28;19969;-81
2022/04/07 11:13:16;;;;;;;;;;;;;;;17.25;39.23;98180.59;4981707;28;19933;-81
2022/04/07 11:15:51;;;;;;;;;;;;;;;16.96;41.08;98175.34;4979878;28;19922;-81
2022/04/07 11:18:22;;;;;;;;;;;;;;;16.98;41.05;98171.66;4979820;28;19929;-81
2022/04/07 11:21:02;;;;;;;;;;;;;;;16.85;42.87;98165.38;4970900;28;20444;-81
2022/04/07 11:23:40;;;;;;;;;;;;;;;16.60;41.17;98163.44;4976064;28;19926;-80
2022/04/07 11:26:12;;;;;;;;;;;;;;;16.42;41.34;98145.03;5012080;28;19925;-80
2022/04/07 11:28:38;;;;;;;;;;;;;;;16.30;42.90;98132.53;4979318;28;20000;-80
2022/04/07 11:31:04;;;;;;;;;;;;;;;16.51;42.46;98132.94;4979936;28;20044;-80
2022/04/07 11:33:29;;;;;;;;;;;;;;;16.29;43.22;98134.31;4979287;28;19918;-80
2022/04/07 11:36:04;;;;;;;;;;;;;;;16.74;43.61;98136.78;4981665;28;19928;-79
2022/04/07 11:38:30;;;;;;;;;;;;;;;16.75;40.56;98140.31;4977796;28;20296;-80
2022/04/07 11:40:59;;;;;;;;;;;;;;;15.93;41.57;98161.41;4976760;28;20343;-79
2022/04/07 11:43:25;;;;;;;;;;;;;;;15.78;42.38;98157.88;4981651;28;19926;-79
2022/04/07 11:45:51;;;;;;;;;;;;;;;15.85;42.31;98156.56;4979154;28;20289;-79
2022/04/07 11:48:16;;;;;;;;;;;;;;;15.79;42.78;98170.22;4977098;28;19925;-81
2022/04/07 11:50:42;;;;;;;;;;;;;;;16.19;41.91;98173.09;5017627;28;19956;-82
2022/04/07 11:53:07;;;;;;;;;;;;;;;16.40;41.88;98170.03;4988626;28;20012;-83
2022/04/07 11:55:33;;;;;;;;;;;;;;;16.32;41.98;98181.16;4975299;28;20384;-81
2022/04/07 11:57:59;;;;;;;;;;;;;;;15.66;41.28;98185.16;4968856;28;19960;-80
2022/04/07 12:00:28;;;;;;;;;;;;;;;15.64;42.37;98187.06;4970088;28;20439;-80
2022/04/07 12:02:57;;;;;;;;;;;;;;;16.11;41.58;98191.31;4970146;28;19977;-81
2022/04/07 12:05:22;;;;;;;;;;;;;;;15.79;42.00;98202.13;5006048;28;19933;-80
2022/04/07 12:07:47;;;;;;;;;;;;;;;15.87;42.99;98213.16;4978626;28;20036;-80
2022/04/07 12:10:14;;;;;;;;;;;;;;;16.44;42.80;98216.81;4977594;28;20446;-80
2022/04/07 12:12:40;;;;;;;;;;;;;;;16.78;40.63;98209.34;4982684;28;19917;-79
2022/04/07 12:15:06;;;;;;;;;;;;;;;16.80;39.58;98216.25;4996567;28;20301;-79
2022/04/07 12:17:34;;;;;;;;;;;;;;;17.10;39.80;98220.63;4969603;28;19922;-79
2022/04/07 12:20:00;;;;;;;;;;;;;;;17.68;39.45;98231.03;4969451;28;20298;-80
2022/04/07 12:22:29;;;;;;;;;;;;;;;17.32;38.47;98232.53;4969011;28;19989;-81
2022/04/07 12:24:59;;;;;;;;;;;;;;;17.07;38.50;98206.63;4986426;28;20012;-81
2022/04/07 12:27:28;;;;;;;;;;;;;;;17.10;39.11;98207.28;4988311;28;20392;-83
2022/04/07 12:29:54;;;;;;;;;;;;;;;16.71;38.50;98221.34;4989166;28;19991;-82
2022/04/07 12:32:19;;;;;;;;;;;;;;;16.70;39.66;98215.16;4988692;28;20404;-82
2022/04/07 12:34:51;;;;;;;;;;;;;;;17.04;39.26;98207.69;4988927;28;19926;-83
2022/04/07 12:37:36;;;;;;;;;;;;;;;17.22;39.16;98218.94;4976384;28;19945;-81
2022/04/07 12:40:03;;;;;;;;;;;;;;;17.64;38.74;98210.84;5000342;28;19924;-82
2022/04/07 12:42:28;;;;;;;;;;;;;;;17.89;38.03;98210.09;4979815;28;20454;-83
2022/04/07 12:45:07;;;;;;;;;;;;;;;17.45;37.62;98228.06;4987519;28;19926;-80
2022/04/07 12:47:33;;;;;;;;;;;;;;;17.03;39.52;98229.09;4985157;28;19985;-81